Time;durP1;ratioP1;P1;durP2;ratioP2;P2;SDS_P1;SDS_P2;PMS_P1;PMS_P2;Temp;Humidity;BMP_temperature;BMP_pressure;BME280_temperature;BME280_humidity;BME280_pressure;Samples;Min_cycle;Max_cycle;Signal;HPM_P1;HPM_P2
2023/06/13 00:00:51;;;;;;;;;;;;;;;25.05;41.84;100588.23;102693;1289;62322;-85
2023/06/13 00:03:19;;;;;;;;;;;;;;;25.06;41.87;100586.80;103294;1291;62212;-84
2023/06/13 00:05:46;;;;;;;;;;;;;;;25.06;41.79;100585.33;103194;1294;76538;-85
2023/06/13 00:08:17;;;;;;;;;;;;;;;25.05;41.79;100583.37;103326;1292;62248;-84
2023/06/13 00:10:46;;;;;;;;;;;;;;;25.05;41.73;100577.44;103167;1289;63264;-85
2023/06/13 00:13:13;;;;;;;;;;;;;;;25.05;41.64;100574.74;102982;1289;64067;-84
2023/06/13 00:15:41;;;;;;;;;;;;;;;25.05;41.62;100571.34;103269;1292;67583;-84
2023/06/13 00:18:07;;;;;;;;;;;;;;;25.05;41.68;100567.91;103223;1288;63363;-85
2023/06/13 00:20:34;;;;;;;;;;;;;;;25.05;41.75;100570.48;103119;1294;62235;-84
2023/06/13 00:23:04;;;;;;;;;;;;;;;25.05;41.69;100565.08;103135;1288;62163;-85
2023/06/13 00:25:29;;;;;;;;;;;;;;;25.04;41.68;100566.73;103121;1290;67844;-84
2023/06/13 00:27:55;;;;;;;;;;;;;;;25.04;41.68;100566.75;103123;1294;62121;-85
2023/06/13 00:30:21;;;;;;;;;;;;;;;25.04;41.74;100567.32;103217;1293;63296;-84
2023/06/13 00:32:46;;;;;;;;;;;;;;;25.04;41.53;100569.69;103271;1294;62216;-84
2023/06/13 00:35:12;;;;;;;;;;;;;;;25.03;41.67;100569.70;103095;1289;62184;-84
2023/06/13 00:37:40;;;;;;;;;;;;;;;25.03;41.69;100571.86;103165;1294;63473;-84
2023/06/13 00:40:07;;;;;;;;;;;;;;;25.03;41.69;100571.55;103154;1295;62009;-84
2023/06/13 00:42:33;;;;;;;;;;;;;;;25.03;41.62;100570.11;103124;1293;62101;-85
2023/06/13 00:45:35;;;;;;;;;;;;;;;25.02;41.65;100567.13;103150;1293;63298;-84
2023/06/13 00:48:05;;;;;;;;;;;;;;;25.02;41.74;100566.42;102884;1295;67592;-84
2023/06/13 00:50:34;;;;;;;;;;;;;;;25.02;41.61;100566.23;102660;1295;62153;-84
2023/06/13 00:53:09;;;;;;;;;;;;;;;25.02;41.69;100562.98;102721;1300;62094;-84
2023/06/13 00:55:35;;;;;;;;;;;;;;;25.02;41.74;100558.33;102715;1297;64898;-85
2023/06/13 00:58:04;;;;;;;;;;;;;;;25.02;41.59;100555.64;102618;1295;62200;-84
2023/06/13 01:00:31;;;;;;;;;;;;;;;25.01;41.66;100550.64;102669;1298;62411;-84
2023/06/13 01:03:23;;;;;;;;;;;;;;;25.01;41.65;100551.55;102856;1295;63787;-85
2023/06/13 01:05:49;;;;;;;;;;;;;;;25.01;41.58;100552.45;102205;1305;64944;-85
2023/06/13 01:08:22;;;;;;;;;;;;;;;25.01;41.64;100553.54;102203;1305;62336;-84
2023/06/13 01:10:52;;;;;;;;;;;;;;;25.01;41.65;100551.91;102282;1304;62636;-84
2023/06/13 01:13:28;;;;;;;;;;;;;;;25.01;41.69;100544.22;102258;1305;62122;-84
2023/06/13 01:15:54;;;;;;;;;;;;;;;25.01;41.60;100540.80;102264;1306;63923;-85
2023/06/13 01:18:24;;;;;;;;;;;;;;;25.01;41.67;100537.36;102197;1307;62235;-85
2023/06/13 01:21:00;;;;;;;;;;;;;;;25.00;41.69;100534.89;102333;1300;62308;-85
2023/06/13 01:23:30;;;;;;;;;;;;;;;25.00;41.73;100532.39;102542;1300;62372;-85
2023/06/13 01:26:16;;;;;;;;;;;;;;;25.00;41.73;100530.94;102420;1301;64792;-84
2023/06/13 01:28:44;;;;;;;;;;;;;;;25.00;41.81;100532.59;102421;1296;67872;-84
2023/06/13 01:31:12;;;;;;;;;;;;;;;25.00;41.68;100534.02;102484;1297;62122;-84
2023/06/13 01:33:37;;;;;;;;;;;;;;;24.99;41.67;100531.73;102374;1301;62293;-84
2023/06/13 01:36:03;;;;;;;;;;;;;;;24.99;41.64;100533.52;102470;1301;62277;-84
2023/06/13 01:38:29;;;;;;;;;;;;;;;24.99;41.71;100536.79;102473;1301;63302;-84
2023/06/13 01:40:55;;;;;;;;;;;;;;;24.99;41.70;100537.36;102657;1300;62249;-85
2023/06/13 01:43:20;;;;;;;;;;;;;;;24.99;41.66;100541.48;102920;1290;62201;-84
2023/06/13 01:45:46;;;;;;;;;;;;;;;24.98;41.68;100542.27;103185;1294;63509;-85
2023/06/13 01:48:14;;;;;;;;;;;;;;;24.98;41.59;100545.19;103175;1294;65029;-84
2023/06/13 01:50:45;;;;;;;;;;;;;;;24.98;41.66;100542.98;103152;1289;67629;-84
2023/06/13 01:53:14;;;;;;;;;;;;;;;24.98;41.60;100541.39;103226;1289;62201;-85
2023/06/13 01:55:42;;;;;;;;;;;;;;;24.98;41.75;100539.27;103208;1293;62205;-84
2023/06/13 01:58:15;;;;;;;;;;;;;;;24.98;41.73;100535.86;102948;1295;64619;-85
2023/06/13 02:00:42;;;;;;;;;;;;;;;24.98;41.72;100536.19;103188;1288;76239;-85
2023/06/13 02:03:07;;;;;;;;;;;;;;;24.98;41.56;100541.25;103124;1293;63306;-85
2023/06/13 02:05:34;;;;;;;;;;;;;;;24.98;41.58;100546.29;103172;1290;62229;-85
2023/06/13 02:08:01;;;;;;;;;;;;;;;24.98;41.57;100549.02;103143;1289;62187;-85
2023/06/13 02:10:27;;;;;;;;;;;;;;;24.97;41.69;100550.30;103067;1295;63845;-84
2023/06/13 02:12:54;;;;;;;;;;;;;;;24.97;41.71;100551.39;103200;1292;62281;-85
2023/06/13 02:15:19;;;;;;;;;;;;;;;24.97;41.62;100551.60;103233;1293;62110;-84
2023/06/13 02:17:46;;;;;;;;;;;;;;;24.96;41.65;100550.01;103114;1289;62242;-84
2023/06/13 02:20:12;;;;;;;;;;;;;;;24.96;41.66;100552.91;103251;1292;63541;-85
2023/06/13 02:22:38;;;;;;;;;;;;;;;24.97;41.65;100553.59;103128;1289;62088;-84
2023/06/13 02:25:04;;;;;;;;;;;;;;;24.96;41.55;100551.32;103268;1295;62190;-84
2023/06/13 02:27:30;;;;;;;;;;;;;;;24.96;41.64;100551.16;103090;1293;62105;-84
2023/06/13 02:29:56;;;;;;;;;;;;;;;24.96;41.55;100547.90;103113;1295;62159;-85
2023/06/13 02:32:23;;;;;;;;;;;;;;;24.96;41.69;100551.73;103111;1291;62714;-85
2023/06/13 02:34:51;;;;;;;;;;;;;;;24.96;41.68;100551.17;103152;1295;62142;-85
2023/06/13 02:37:17;;;;;;;;;;;;;;;24.96;41.65;100555.30;103250;1289;63642;-84
2023/06/13 02:39:42;;;;;;;;;;;;;;;24.95;41.68;100556.09;103097;1295;63253;-84
2023/06/13 02:42:08;;;;;;;;;;;;;;;24.95;41.86;100556.27;103165;1295;62136;-85
2023/06/13 02:44:33;;;;;;;;;;;;;;;24.95;41.71;100559.16;103098;1294;63616;-84
2023/06/13 02:46:59;;;;;;;;;;;;;;;24.95;41.66;100558.80;103150;1290;62192;-84
2023/06/13 02:49:25;;;;;;;;;;;;;;;24.95;41.68;100561.50;103147;1294;62155;-84
2023/06/13 02:51:51;;;;;;;;;;;;;;;24.94;41.70;100561.73;103235;1298;63803;-85
2023/06/13 02:54:17;;;;;;;;;;;;;;;24.94;41.68;100560.80;103248;1295;62766;-84
2023/06/13 02:56:42;;;;;;;;;;;;;;;24.95;41.58;100565.10;103126;1289;62196;-84
2023/06/13 02:59:08;;;;;;;;;;;;;;;24.94;41.69;100568.91;103366;1289;62263;-84
2023/06/13 03:01:34;;;;;;;;;;;;;;;24.95;41.64;100574.11;103092;1295;62407;-84
2023/06/13 03:04:00;;;;;;;;;;;;;;;24.95;41.65;100574.11;103290;1292;62193;-84
2023/06/13 03:06:26;;;;;;;;;;;;;;;24.95;41.61;100574.83;103116;1295;67877;-84
2023/06/13 03:08:52;;;;;;;;;;;;;;;24.94;41.64;100576.09;103295;1289;62746;-84
2023/06/13 03:11:18;;;;;;;;;;;;;;;24.95;41.65;100578.59;103124;1295;62194;-85
2023/06/13 03:13:45;;;;;;;;;;;;;;;24.95;41.65;100576.64;103288;1289;63712;-84
2023/06/13 03:16:11;;;;;;;;;;;;;;;24.95;41.56;100583.09;103140;1294;62296;-85
2023/06/13 03:18:37;;;;;;;;;;;;;;;24.95;41.54;100590.15;103104;1302;62306;-85
2023/06/13 03:21:03;;;;;;;;;;;;;;;24.95;41.70;100588.89;103121;1295;62188;-85
2023/06/13 03:23:29;;;;;;;;;;;;;;;24.95;41.58;100589.06;103184;1294;63374;-84
2023/06/13 03:25:55;;;;;;;;;;;;;;;24.95;41.63;100593.92;103118;1295;62188;-85
2023/06/13 03:28:20;;;;;;;;;;;;;;;24.95;41.72;100594.09;103159;1293;62264;-85
2023/06/13 03:30:46;;;;;;;;;;;;;;;24.95;41.60;100591.20;103189;1288;62264;-84
2023/06/13 03:33:11;;;;;;;;;;;;;;;24.95;41.69;100592.11;103119;1289;62328;-84
2023/06/13 03:35:38;;;;;;;;;;;;;;;24.95;41.62;100597.48;103103;1293;62114;-84
2023/06/13 03:38:04;;;;;;;;;;;;;;;24.95;41.65;100595.71;103150;1295;62210;-84
2023/06/13 03:40:32;;;;;;;;;;;;;;;24.95;41.63;100593.92;103093;1289;63403;-84
2023/06/13 03:42:58;;;;;;;;;;;;;;;24.94;41.66;100593.41;103284;1292;62249;-84
2023/06/13 03:45:26;;;;;;;;;;;;;;;24.95;41.58;100596.08;103291;1292;62207;-84
2023/06/13 03:47:52;;;;;;;;;;;;;;;24.94;41.63;100597.36;103144;1293;67628;-84
2023/06/13 03:50:18;;;;;;;;;;;;;;;24.94;41.67;100594.86;103079;1294;62239;-84
2023/06/13 03:52:44;;;;;;;;;;;;;;;24.94;41.57;100594.52;103178;1288;63282;-84
2023/06/13 03:55:11;;;;;;;;;;;;;;;24.94;41.58;100596.50;103107;1294;62109;-84
2023/06/13 03:57:37;;;;;;;;;;;;;;;24.93;41.48;100592.25;103075;1295;62176;-84
2023/06/13 04:00:05;;;;;;;;;;;;;;;24.93;41.37;100595.31;103324;1292;63667;-84
2023/06/13 04:02:30;;;;;;;;;;;;;;;24.92;41.41;100595.41;103281;1292;62210;-85
2023/06/13 04:04:56;;;;;;;;;;;;;;;24.92;41.42;100597.88;103071;1294;62126;-85
2023/06/13 04:07:23;;;;;;;;;;;;;;;24.92;41.36;100599.17;103190;1294;63243;-84
2023/06/13 04:09:49;;;;;;;;;;;;;;;24.91;41.50;100597.27;103142;1288;63482;-84
2023/06/13 04:12:15;;;;;;;;;;;;;;;24.91;41.33;100600.48;103337;1289;62181;-85
2023/06/13 04:14:41;;;;;;;;;;;;;;;24.91;41.32;100598.38;103526;1291;62197;-85
2023/06/13 04:17:09;;;;;;;;;;;;;;;24.91;41.33;100594.39;103323;1292;62513;-85
2023/06/13 04:19:35;;;;;;;;;;;;;;;24.90;41.16;100595.57;103346;1291;62153;-85
2023/06/13 04:22:06;;;;;;;;;;;;;;;24.90;41.27;100592.36;103074;1295;62201;-86
2023/06/13 04:24:32;;;;;;;;;;;;;;;24.89;41.24;100590.05;102847;1298;72701;-85
2023/06/13 04:27:00;;;;;;;;;;;;;;;24.89;41.14;100590.42;103210;1292;75308;-86
2023/06/13 04:29:28;;;;;;;;;;;;;;;24.89;41.13;100594.40;103909;1292;62158;-86
2023/06/13 04:31:56;;;;;;;;;;;;;;;24.88;41.06;100597.52;103177;1293;62110;-85
2023/06/13 04:34:23;;;;;;;;;;;;;;;24.87;40.86;100599.29;102965;1297;73512;-85
2023/06/13 04:36:49;;;;;;;;;;;;;;;24.84;40.81;100598.15;102983;1290;75987;-84
2023/06/13 04:39:17;;;;;;;;;;;;;;;24.80;40.65;100597.79;103151;1297;62278;-84
2023/06/13 04:41:43;;;;;;;;;;;;;;;24.76;40.60;100597.39;103658;1292;62226;-83
2023/06/13 04:44:09;;;;;;;;;;;;;;;24.71;40.59;100600.73;103730;1296;62127;-85
2023/06/13 04:46:35;;;;;;;;;;;;;;;24.66;40.47;100601.68;103994;1291;62113;-83
2023/06/13 04:49:02;;;;;;;;;;;;;;;24.62;40.36;100608.89;104711;1290;62187;-84
2023/06/13 04:51:28;;;;;;;;;;;;;;;24.55;40.41;100610.91;104490;1288;60231;-84
2023/06/13 04:53:57;;;;;;;;;;;;;;;24.47;40.18;100612.50;104760;1289;62078;-86
2023/06/13 04:56:24;;;;;;;;;;;;;;;24.41;40.12;100615.00;104853;1289;75234;-85
2023/06/13 04:58:51;;;;;;;;;;;;;;;24.35;40.09;100620.58;104728;1288;63232;-85
2023/06/13 05:01:18;;;;;;;;;;;;;;;24.31;40.08;100617.32;104497;1288;62169;-85
2023/06/13 05:03:45;;;;;;;;;;;;;;;24.26;40.05;100613.44;104745;1288;73640;-87
2023/06/13 05:06:20;;;;;;;;;;;;;;;24.25;40.05;100620.71;105939;1288;75287;-86
2023/06/13 05:08:46;;;;;;;;;;;;;;;24.25;40.10;100613.68;106039;1288;60876;-86
2023/06/13 05:11:12;;;;;;;;;;;;;;;24.25;39.96;100615.36;106033;1291;60274;-86
2023/06/13 05:13:37;;;;;;;;;;;;;;;24.28;39.96;100618.02;106093;1286;172109;-82
2023/06/13 05:16:04;;;;;;;;;;;;;;;24.30;39.86;100623.80;106393;1286;60883;-82
2023/06/13 05:18:29;;;;;;;;;;;;;;;24.31;40.00;100619.54;106361;1286;60516;-82
2023/06/13 05:20:56;;;;;;;;;;;;;;;24.34;39.85;100625.15;105424;1286;62002;-82
2023/06/13 05:23:22;;;;;;;;;;;;;;;24.39;39.90;100623.48;105314;1286;62108;-82
2023/06/13 05:25:48;;;;;;;;;;;;;;;24.43;39.94;100621.70;105373;1291;62178;-83
2023/06/13 05:28:14;;;;;;;;;;;;;;;24.47;39.82;100621.14;105448;1286;75451;-83
2023/06/13 05:30:39;;;;;;;;;;;;;;;24.52;39.89;100621.10;105224;1286;62158;-83
2023/06/13 05:33:05;;;;;;;;;;;;;;;24.56;39.83;100618.07;105332;1291;60822;-83
2023/06/13 05:35:30;;;;;;;;;;;;;;;24.58;39.81;100623.95;105049;1291;62162;-84
2023/06/13 05:37:56;;;;;;;;;;;;;;;24.61;39.87;100620.98;104888;1286;62126;-84
2023/06/13 05:40:21;;;;;;;;;;;;;;;24.64;39.73;100620.06;105032;1291;75268;-84
2023/06/13 05:42:47;;;;;;;;;;;;;;;24.66;39.75;100618.98;105500;1286;60042;-84
2023/06/13 05:45:12;;;;;;;;;;;;;;;24.68;39.72;100622.42;105268;1292;60424;-84
2023/06/13 05:47:38;;;;;;;;;;;;;;;24.70;39.71;100623.30;105298;1286;60565;-84
2023/06/13 05:50:03;;;;;;;;;;;;;;;24.71;39.76;100625.92;105282;1286;63358;-84
2023/06/13 05:52:30;;;;;;;;;;;;;;;24.72;39.58;100628.55;105572;1286;68137;-84
2023/06/13 05:54:56;;;;;;;;;;;;;;;24.69;39.49;100628.45;105606;1289;60106;-84
2023/06/13 05:57:23;;;;;;;;;;;;;;;24.65;39.43;100632.21;105394;1289;60656;-83
2023/06/13 05:59:49;;;;;;;;;;;;;;;24.63;39.49;100631.71;105514;1286;73686;-84
2023/06/13 06:02:14;;;;;;;;;;;;;;;24.62;39.42;100631.41;105265;1286;61718;-84
2023/06/13 06:04:40;;;;;;;;;;;;;;;24.62;39.57;100630.51;105416;1286;62071;-84
2023/06/13 06:07:05;;;;;;;;;;;;;;;24.62;39.46;100629.06;105532;1287;62079;-84
2023/06/13 06:09:31;;;;;;;;;;;;;;;24.63;39.45;100629.36;105722;1286;62022;-84
2023/06/13 06:11:56;;;;;;;;;;;;;;;24.64;39.50;100630.37;105261;1286;73472;-84
2023/06/13 06:14:22;;;;;;;;;;;;;;;24.66;39.43;100630.00;105069;1286;62057;-83
2023/06/13 06:16:47;;;;;;;;;;;;;;;24.62;39.43;100632.13;105238;1286;60811;-83
2023/06/13 06:19:13;;;;;;;;;;;;;;;24.61;39.53;100637.19;105207;1286;62022;-83
2023/06/13 06:21:38;;;;;;;;;;;;;;;24.63;39.51;100636.73;105308;1286;62140;-83
2023/06/13 06:24:06;;;;;;;;;;;;;;;24.65;39.53;100643.01;105311;1286;62045;-83
2023/06/13 06:26:32;;;;;;;;;;;;;;;24.67;39.51;100638.54;105407;1288;76150;-83
2023/06/13 06:28:57;;;;;;;;;;;;;;;24.68;39.62;100638.06;105357;1292;62081;-83
2023/06/13 06:31:24;;;;;;;;;;;;;;;24.68;39.58;100639.10;105216;1286;60233;-83
2023/06/13 06:33:49;;;;;;;;;;;;;;;24.70;39.56;100642.70;105268;1291;62170;-83
2023/06/13 06:36:15;;;;;;;;;;;;;;;24.71;39.55;100638.48;105575;1286;62173;-83
2023/06/13 06:38:42;;;;;;;;;;;;;;;24.72;39.56;100642.16;105497;1289;62040;-83
2023/06/13 06:41:08;;;;;;;;;;;;;;;24.73;39.36;100639.58;105622;1286;62031;-83
2023/06/13 06:43:33;;;;;;;;;;;;;;;24.74;39.48;100643.09;105516;1286;61764;-83
2023/06/13 06:45:59;;;;;;;;;;;;;;;24.74;39.51;100646.12;105431;1291;62117;-83
2023/06/13 06:48:24;;;;;;;;;;;;;;;24.75;39.41;100647.48;105368;1291;62181;-83
2023/06/13 06:50:49;;;;;;;;;;;;;;;24.76;39.47;100649.55;105175;1292;62140;-83
2023/06/13 06:53:16;;;;;;;;;;;;;;;24.76;39.53;100643.41;105304;1291;62084;-85
2023/06/13 06:55:41;;;;;;;;;;;;;;;24.73;39.35;100644.44;105172;1288;62998;-84
2023/06/13 06:58:07;;;;;;;;;;;;;;;24.71;39.33;100646.07;105282;1291;60574;-83
2023/06/13 07:00:33;;;;;;;;;;;;;;;24.68;39.36;100641.48;105564;1291;62662;-84
2023/06/13 07:02:59;;;;;;;;;;;;;;;24.65;39.40;100638.47;105307;1286;60260;-83
2023/06/13 07:05:25;;;;;;;;;;;;;;;24.64;39.39;100641.70;105334;1287;60384;-84
2023/06/13 07:07:51;;;;;;;;;;;;;;;24.59;39.29;100641.99;105584;1291;62109;-83
2023/06/13 07:10:16;;;;;;;;;;;;;;;24.60;39.40;100637.98;105475;1292;60263;-84
2023/06/13 07:12:42;;;;;;;;;;;;;;;24.62;39.42;100634.10;105274;1289;75311;-83
2023/06/13 07:15:08;;;;;;;;;;;;;;;24.61;39.36;100630.76;104836;1285;881816;-84
2023/06/13 07:17:33;;;;;;;;;;;;;;;24.61;39.48;100626.75;105246;1291;62086;-84
2023/06/13 07:19:58;;;;;;;;;;;;;;;24.63;39.47;100629.88;105677;1289;60929;-84
2023/06/13 07:22:25;;;;;;;;;;;;;;;24.64;39.56;100631.97;105602;1286;64849;-83
2023/06/13 07:24:50;;;;;;;;;;;;;;;24.65;39.55;100636.57;105562;1286;60588;-84
2023/06/13 07:27:16;;;;;;;;;;;;;;;24.66;39.64;100636.94;105490;1287;60915;-84
2023/06/13 07:29:41;;;;;;;;;;;;;;;24.67;39.56;100632.02;105645;1291;61974;-83
2023/06/13 07:32:08;;;;;;;;;;;;;;;24.68;39.54;100628.29;105464;1286;60114;-83
2023/06/13 07:34:34;;;;;;;;;;;;;;;24.69;39.63;100630.21;105498;1290;59932;-83
2023/06/13 07:36:59;;;;;;;;;;;;;;;24.70;39.61;100628.86;105382;1290;62178;-83
2023/06/13 07:39:25;;;;;;;;;;;;;;;24.71;39.69;100625.16;105508;1287;60787;-83
2023/06/13 07:41:50;;;;;;;;;;;;;;;24.73;39.57;100627.20;105253;1291;62110;-84
2023/06/13 07:44:17;;;;;;;;;;;;;;;24.75;39.63;100628.64;105057;1287;60421;-83
2023/06/13 07:46:42;;;;;;;;;;;;;;;24.76;39.59;100625.27;105206;1288;62159;-84
2023/06/13 07:49:07;;;;;;;;;;;;;;;24.77;39.67;100628.98;105323;1286;60116;-84
2023/06/13 07:51:34;;;;;;;;;;;;;;;24.76;39.56;100629.45;105432;1291;60613;-84
2023/06/13 07:53:59;;;;;;;;;;;;;;;24.75;39.44;100628.41;105169;1286;60446;-84
2023/06/13 07:56:25;;;;;;;;;;;;;;;24.76;39.39;100629.27;105218;1286;62286;-84
2023/06/13 07:58:51;;;;;;;;;;;;;;;24.76;39.64;100631.18;105444;1292;60490;-83
2023/06/13 08:01:16;;;;;;;;;;;;;;;24.77;39.72;100626.63;105566;1289;60570;-83
2023/06/13 08:03:43;;;;;;;;;;;;;;;24.77;39.55;100625.95;105898;1286;60998;-84
2023/06/13 08:06:09;;;;;;;;;;;;;;;24.72;39.54;100625.61;106205;1285;61425;-84
2023/06/13 08:08:36;;;;;;;;;;;;;;;24.70;39.56;100624.56;106168;1286;65096;-84
2023/06/13 08:11:02;;;;;;;;;;;;;;;24.68;39.76;100626.15;106265;1286;67594;-83
2023/06/13 08:13:28;;;;;;;;;;;;;;;24.68;39.65;100622.20;105993;1286;60961;-83
2023/06/13 08:15:53;;;;;;;;;;;;;;;24.69;39.76;100622.27;106280;1286;60142;-84
2023/06/13 08:18:19;;;;;;;;;;;;;;;24.72;39.89;100626.73;106099;1292;60562;-84
2023/06/13 08:20:45;;;;;;;;;;;;;;;24.74;39.78;100627.62;106197;1291;60652;-84
2023/06/13 08:23:12;;;;;;;;;;;;;;;24.75;39.96;100625.89;106128;1288;66610;-84
2023/06/13 08:25:37;;;;;;;;;;;;;;;24.75;39.86;100627.71;106205;1286;60159;-83
2023/06/13 08:28:06;;;;;;;;;;;;;;;24.74;39.83;100624.54;106106;1286;60283;-83
2023/06/13 08:30:32;;;;;;;;;;;;;;;24.73;39.74;100617.84;106079;1287;72577;-83
2023/06/13 08:33:01;;;;;;;;;;;;;;;24.73;39.74;100616.17;106111;1286;61334;-84
2023/06/13 08:35:27;;;;;;;;;;;;;;;24.76;39.80;100617.56;106148;1286;60233;-84
2023/06/13 08:37:52;;;;;;;;;;;;;;;24.78;39.77;100617.56;106357;1287;60194;-84
2023/06/13 08:40:19;;;;;;;;;;;;;;;24.80;39.82;100618.14;106363;1286;60419;-84
2023/06/13 08:42:45;;;;;;;;;;;;;;;24.82;39.86;100619.88;106181;1286;60124;-84
2023/06/13 08:45:10;;;;;;;;;;;;;;;24.84;39.62;100616.64;106188;1286;60414;-84
2023/06/13 08:47:36;;;;;;;;;;;;;;;24.86;39.72;100611.08;106396;1286;60360;-84
2023/06/13 08:50:02;;;;;;;;;;;;;;;24.87;39.62;100611.13;106282;1288;60385;-84
2023/06/13 08:52:33;;;;;;;;;;;;;;;24.88;39.73;100608.33;106209;1286;73738;-84
2023/06/13 08:54:58;;;;;;;;;;;;;;;24.89;39.53;100600.74;106304;1286;75858;-85
2023/06/13 08:57:26;;;;;;;;;;;;;;;24.90;39.58;100600.26;106406;1286;61344;-84
2023/06/13 08:59:52;;;;;;;;;;;;;;;24.90;39.59;100597.55;106318;1286;61154;-84
2023/06/13 09:02:19;;;;;;;;;;;;;;;24.89;39.58;100593.70;106118;1287;61027;-84
2023/06/13 09:04:45;;;;;;;;;;;;;;;24.88;39.59;100592.93;106107;1286;59977;-84
2023/06/13 09:07:11;;;;;;;;;;;;;;;24.89;39.70;100594.57;106056;1286;60288;-84
2023/06/13 09:09:37;;;;;;;;;;;;;;;24.88;39.64;100586.93;106244;1289;60299;-85
2023/06/13 09:12:02;;;;;;;;;;;;;;;24.87;39.60;100589.02;106150;1291;60517;-85
2023/06/13 09:14:28;;;;;;;;;;;;;;;24.84;39.64;100588.73;105993;1286;60396;-84
2023/06/13 09:16:54;;;;;;;;;;;;;;;24.80;39.50;100583.53;106387;1290;60281;-85
2023/06/13 09:19:20;;;;;;;;;;;;;;;24.78;39.60;100581.15;106140;1286;61492;-85
2023/06/13 09:21:45;;;;;;;;;;;;;;;24.80;39.65;100581.00;106429;1286;60207;-84
2023/06/13 09:24:12;;;;;;;;;;;;;;;24.84;39.64;100586.05;106069;1291;60016;-84
2023/06/13 09:26:39;;;;;;;;;;;;;;;24.87;39.64;100582.03;106276;1286;60294;-84
2023/06/13 09:29:05;;;;;;;;;;;;;;;24.89;39.58;100579.65;106259;1291;60917;-84
2023/06/13 09:31:31;;;;;;;;;;;;;;;24.89;39.55;100572.61;105730;1286;62184;-85
2023/06/13 09:33:58;;;;;;;;;;;;;;;24.85;39.53;100570.10;105372;1285;60314;-84
2023/06/13 09:36:24;;;;;;;;;;;;;;;24.82;39.54;100573.25;105394;1286;62078;-84
2023/06/13 09:38:50;;;;;;;;;;;;;;;24.82;39.47;100563.40;105342;1292;60896;-84
2023/06/13 09:41:16;;;;;;;;;;;;;;;24.82;39.49;100569.11;105810;1286;60337;-83
2023/06/13 09:43:42;;;;;;;;;;;;;;;24.84;39.50;100563.39;105418;1291;60813;-84
2023/06/13 09:46:10;;;;;;;;;;;;;;;24.84;39.46;100558.10;105621;1290;61996;-84
2023/06/13 09:48:36;;;;;;;;;;;;;;;24.80;39.30;100557.77;105424;1286;75331;-84
2023/06/13 09:51:03;;;;;;;;;;;;;;;24.80;39.42;100557.23;105478;1285;63360;-84
2023/06/13 09:53:29;;;;;;;;;;;;;;;24.80;39.38;100550.63;105434;1291;60408;-84
2023/06/13 09:55:55;;;;;;;;;;;;;;;24.81;39.39;100555.34;105720;1291;62261;-84
2023/06/13 09:58:20;;;;;;;;;;;;;;;24.82;39.32;100558.17;105569;1286;62267;-84
2023/06/13 10:00:48;;;;;;;;;;;;;;;24.80;39.32;100551.16;105462;1286;60276;-84
2023/06/13 10:03:18;;;;;;;;;;;;;;;24.74;39.14;100547.13;105769;1286;61511;-85
2023/06/13 10:05:43;;;;;;;;;;;;;;;24.72;39.22;100544.61;105485;1286;65289;-84
2023/06/13 10:08:10;;;;;;;;;;;;;;;24.71;39.29;100540.60;105881;1285;62062;-84
2023/06/13 10:10:37;;;;;;;;;;;;;;;24.72;39.34;100536.41;105810;1285;60917;-84
2023/06/13 10:13:02;;;;;;;;;;;;;;;24.74;39.40;100536.52;105785;1286;62107;-84
2023/06/13 10:15:37;;;;;;;;;;;;;;;24.75;39.36;100531.61;105644;1288;63744;-85
2023/06/13 10:18:10;;;;;;;;;;;;;;;24.75;39.33;100529.05;105392;1286;66527;-84
2023/06/13 10:20:37;;;;;;;;;;;;;;;24.74;39.36;100528.43;105519;1286;60668;-84
2023/06/13 10:23:02;;;;;;;;;;;;;;;24.73;39.28;100520.30;105159;1286;62130;-84
2023/06/13 10:25:29;;;;;;;;;;;;;;;24.75;39.24;100520.13;104984;1286;62190;-85
2023/06/13 10:27:55;;;;;;;;;;;;;;;24.75;39.31;100507.45;105258;1285;62022;-84
2023/06/13 10:30:46;;;;;;;;;;;;;;;24.78;39.24;100518.79;105228;1286;62173;-84
2023/06/13 10:33:12;;;;;;;;;;;;;;;24.81;39.21;100519.42;104782;1286;62044;-84
2023/06/13 10:35:43;;;;;;;;;;;;;;;24.82;39.35;100518.73;104840;1286;62181;-84
2023/06/13 10:38:21;;;;;;;;;;;;;;;24.84;39.34;100514.77;105373;1286;75636;-84
2023/06/13 10:40:52;;;;;;;;;;;;;;;24.86;39.31;100519.23;104755;1291;62172;-84
2023/06/13 10:43:34;;;;;;;;;;;;;;;24.88;39.32;100518.57;105013;1286;61253;-84
2023/06/13 10:46:03;;;;;;;;;;;;;;;24.89;39.30;100520.60;104883;1286;73388;-84
2023/06/13 10:48:36;;;;;;;;;;;;;;;24.90;39.20;100516.70;105003;1286;76631;-83
2023/06/13 10:51:01;;;;;;;;;;;;;;;24.91;39.28;100517.72;105412;1286;62015;-84
2023/06/13 10:53:26;;;;;;;;;;;;;;;24.89;39.21;100510.84;105288;1286;61702;-84
2023/06/13 10:55:58;;;;;;;;;;;;;;;24.86;39.18;100505.18;105210;1286;62142;-83
2023/06/13 10:58:25;;;;;;;;;;;;;;;24.84;39.18;100501.44;105622;1286;67562;-84
2023/06/13 11:00:50;;;;;;;;;;;;;;;24.80;39.12;100501.09;106188;1283;61595;-83
2023/06/13 11:03:16;;;;;;;;;;;;;;;24.79;39.24;100503.36;106286;1283;60439;-85
2023/06/13 11:05:45;;;;;;;;;;;;;;;24.79;39.23;100505.86;106343;1283;60236;-84
2023/06/13 11:08:18;;;;;;;;;;;;;;;24.80;39.15;100502.56;106629;1283;76533;-85
2023/06/13 11:10:45;;;;;;;;;;;;;;;24.82;39.24;100496.09;106520;1281;60354;-84
2023/06/13 11:13:20;;;;;;;;;;;;;;;24.82;39.06;100493.39;106017;1282;60662;-84
2023/06/13 11:15:46;;;;;;;;;;;;;;;24.83;39.15;100486.27;105950;1283;71537;-84
2023/06/13 11:18:13;;;;;;;;;;;;;;;24.85;39.21;100483.19;105669;1283;61978;-84
2023/06/13 11:20:52;;;;;;;;;;;;;;;24.87;39.25;100477.52;105921;1286;61884;-84
2023/06/13 11:23:38;;;;;;;;;;;;;;;24.90;39.30;100474.06;106025;1282;62258;-84
2023/06/13 11:26:04;;;;;;;;;;;;;;;24.92;39.25;100471.17;105621;1285;63965;-84
2023/06/13 11:28:30;;;;;;;;;;;;;;;24.92;39.23;100466.87;105645;1283;62113;-84
2023/06/13 11:30:59;;;;;;;;;;;;;;;24.91;39.19;100467.26;105424;1283;61865;-84
2023/06/13 11:33:27;;;;;;;;;;;;;;;24.93;39.27;100468.78;105917;1282;61845;-84
2023/06/13 11:35:52;;;;;;;;;;;;;;;24.94;39.26;100465.09;105440;1283;62576;-83
2023/06/13 11:38:20;;;;;;;;;;;;;;;24.96;39.20;100461.14;104709;1282;62279;-83
2023/06/13 11:40:46;;;;;;;;;;;;;;;24.97;39.26;100464.63;104928;1283;61994;-84
2023/06/13 11:43:13;;;;;;;;;;;;;;;24.98;39.21;100462.20;105788;1283;62190;-83
2023/06/13 11:45:38;;;;;;;;;;;;;;;24.99;39.30;100456.35;105131;1284;62091;-83
2023/06/13 11:48:04;;;;;;;;;;;;;;;25.00;39.09;100455.18;105246;1283;62117;-84
2023/06/13 11:50:32;;;;;;;;;;;;;;;25.00;39.11;100453.88;104329;1288;63824;-84
2023/06/13 11:53:04;;;;;;;;;;;;;;;25.01;39.22;100457.23;104720;1281;62159;-84
2023/06/13 11:55:30;;;;;;;;;;;;;;;25.01;39.21;100457.08;104794;1282;64812;-84
2023/06/13 11:57:56;;;;;;;;;;;;;;;25.01;39.19;100455.47;104627;1282;62206;-83
2023/06/13 12:00:26;;;;;;;;;;;;;;;25.01;39.14;100451.65;104416;1283;63294;-83
2023/06/13 12:02:55;;;;;;;;;;;;;;;25.01;39.09;100451.63;104525;1282;62079;-84
2023/06/13 12:05:21;;;;;;;;;;;;;;;25.01;39.15;100455.24;104301;1282;64861;-84
2023/06/13 12:07:48;;;;;;;;;;;;;;;25.01;39.02;100452.94;104616;1280;67597;-85
2023/06/13 12:10:14;;;;;;;;;;;;;;;25.00;39.03;100450.64;104445;1283;62203;-84
2023/06/13 12:12:39;;;;;;;;;;;;;;;25.00;39.09;100444.52;104566;1282;62174;-85
2023/06/13 12:15:07;;;;;;;;;;;;;;;24.99;39.05;100439.71;104125;1287;62604;-84
2023/06/13 12:17:33;;;;;;;;;;;;;;;24.99;38.94;100437.19;105350;1281;66323;-84
2023/06/13 12:20:11;;;;;;;;;;;;;;;25.00;39.03;100435.38;104033;1286;62276;-84
2023/06/13 12:22:37;;;;;;;;;;;;;;;25.00;39.03;100435.02;104427;1283;62197;-84
2023/06/13 12:25:04;;;;;;;;;;;;;;;25.00;38.98;100431.23;104259;1283;62156;-85